createdAt,value
2023-02-17T00:00:55.711Z,71.50
2023-02-17T00:03:23.189Z,71.10
2023-02-17T00:05:51.165Z,75.60
2023-02-17T00:08:19.194Z,71.90
2023-02-17T00:10:45.887Z,71.20
2023-02-17T00:13:12.564Z,70.70
2023-02-17T00:15:39.902Z,68.00
2023-02-17T00:18:06.698Z,66.70
2023-02-17T00:20:33.477Z,75.20
2023-02-17T00:23:00.183Z,69.60
2023-02-17T00:25:26.899Z,65.10
2023-02-17T00:27:53.635Z,66.70
2023-02-17T00:30:20.466Z,66.10
2023-02-17T00:32:47.223Z,65.70
2023-02-17T00:35:14.555Z,70.90
2023-02-17T00:37:45.622Z,70.60
2023-02-17T00:40:13.762Z,67.20
2023-02-17T00:42:40.763Z,68.90
2023-02-17T00:45:08.267Z,69.10
2023-02-17T00:47:34.931Z,67.80
2023-02-17T00:50:01.740Z,68.70
2023-02-17T00:52:28.511Z,75.80
2023-02-17T00:54:55.266Z,70.80
2023-02-17T00:57:22.001Z,71.30
2023-02-17T00:59:48.640Z,69.30
2023-02-17T01:04:42.250Z,67.60
2023-02-17T01:07:09.512Z,66.30
2023-02-17T01:09:36.770Z,72.70
2023-02-17T01:12:04.002Z,69.90
2023-02-17T01:14:31.695Z,68.40
2023-02-17T01:16:58.488Z,72.90
2023-02-17T01:19:26.326Z,74.10
2023-02-17T01:21:53.422Z,74.10
2023-02-17T01:24:20.075Z,72.60
2023-02-17T01:29:13.646Z,71.90
2023-02-17T01:31:41.096Z,73.70
2023-02-17T01:34:12.032Z,69.60
2023-02-17T01:36:39.206Z,75.50
2023-02-17T01:39:06.072Z,74.10
2023-02-17T01:41:32.764Z,68.30
2023-02-17T01:44:09.690Z,74.30
2023-02-17T01:46:39.377Z,70.50
2023-02-17T01:49:17.852Z,71.20
2023-02-17T01:51:53.890Z,70.70
2023-02-17T01:54:30.747Z,68.20
2023-02-17T01:57:01.404Z,71.90
2023-02-17T01:59:29.759Z,70.10
2023-02-17T02:02:01.637Z,67.50
2023-02-17T02:04:31.963Z,75.30
2023-02-17T02:06:59.815Z,66.70
2023-02-17T02:09:41.641Z,68.70
2023-02-17T02:12:24.582Z,70.80
2023-02-17T02:14:52.889Z,68.30
2023-02-17T02:17:38.360Z,70.70
2023-02-17T02:20:32.859Z,67.80
2023-02-17T02:23:19.027Z,67.20
2023-02-17T02:26:16.978Z,71.10
2023-02-17T02:29:10.853Z,70.00
2023-02-17T02:31:50.467Z,67.10
2023-02-17T02:34:23.874Z,71.70
2023-02-17T02:36:54.262Z,70.30
2023-02-17T02:39:26.842Z,69.50
2023-02-17T02:41:58.488Z,71.30
2023-02-17T02:44:25.425Z,70.40
2023-02-17T02:47:42.408Z,66.70
2023-02-17T02:50:14.263Z,67.40
2023-02-17T02:52:56.898Z,73.80
2023-02-17T02:55:30.852Z,69.90
2023-02-17T03:01:03.965Z,66.80
2023-02-17T03:03:47.256Z,70.10
2023-02-17T03:06:40.431Z,66.50
2023-02-17T03:09:12.895Z,73.30
2023-02-17T03:11:42.127Z,71.80
2023-02-17T03:14:16.291Z,73.50
2023-02-17T03:16:46.680Z,74.40
2023-02-17T03:19:15.181Z,73.90
2023-02-17T03:21:49.187Z,76.10
2023-02-17T03:24:16.153Z,74.90
2023-02-17T03:26:43.437Z,74.50
2023-02-17T03:31:37.684Z,70.90
2023-02-17T03:34:06.157Z,72.10
2023-02-17T03:36:33.630Z,72.80
2023-02-17T03:39:00.405Z,71.10
2023-02-17T03:41:27.571Z,72.00
2023-02-17T03:43:54.613Z,72.30
2023-02-17T03:46:21.490Z,75.40
2023-02-17T03:48:48.159Z,75.60
2023-02-17T03:53:46.440Z,77.90
2023-02-17T03:56:14.381Z,75.30
2023-02-17T03:58:42.020Z,73.30
2023-02-17T04:01:10.794Z,72.50
2023-02-17T04:03:39.386Z,72.20
2023-02-17T04:06:08.019Z,57.40
2023-02-17T04:08:35.031Z,56.80
2023-02-17T04:11:04.215Z,69.90
2023-02-17T04:13:31.506Z,75.50
2023-02-17T04:15:58.907Z,58.80
2023-02-17T04:18:25.690Z,54.20
2023-02-17T04:20:54.386Z,56.20
2023-02-17T04:23:21.237Z,56.20
2023-02-17T04:25:48.406Z,57.10
2023-02-17T04:28:16.979Z,56.40
2023-02-17T04:30:48.572Z,52.20
2023-02-17T04:33:16.556Z,51.20
2023-02-17T04:35:43.424Z,49.80
2023-02-17T04:38:10.763Z,47.50
2023-02-17T04:40:38.232Z,46.00
2023-02-17T04:43:05.606Z,47.60
2023-02-17T04:45:32.372Z,44.40
2023-02-17T04:47:59.072Z,44.60
2023-02-17T04:52:52.450Z,38.40
2023-02-17T04:55:19.305Z,41.40
2023-02-17T04:57:45.959Z,43.80
2023-02-17T05:02:39.457Z,45.10
2023-02-17T05:07:33.096Z,43.00
2023-02-17T05:12:26.562Z,41.60
2023-02-17T05:17:19.746Z,41.30
2023-02-17T05:22:13.188Z,43.70
2023-02-17T05:24:39.810Z,43.40
2023-02-17T05:27:06.497Z,43.00
2023-02-17T05:32:00.020Z,40.70
2023-02-17T05:34:27.073Z,38.80
2023-02-17T05:36:53.802Z,46.40
2023-02-17T05:41:49.787Z,41.60
2023-02-17T05:46:43.305Z,40.20
2023-02-17T05:49:10.528Z,41.70
2023-02-17T05:51:37.320Z,40.30
2023-02-17T05:54:04.452Z,39.70
2023-02-17T05:56:31.600Z,43.20
2023-02-17T05:58:58.590Z,45.20
2023-02-17T06:01:25.339Z,46.20
2023-02-17T06:06:18.798Z,42.70
2023-02-17T06:08:45.558Z,44.00
2023-02-17T06:13:38.961Z,41.40
2023-02-17T06:16:06.413Z,43.10
2023-02-17T06:18:33.450Z,46.70
2023-02-17T06:23:28.081Z,40.90
2023-02-17T06:25:55.323Z,43.40
2023-02-17T06:28:22.066Z,46.10
2023-02-17T06:33:16.065Z,45.30
2023-02-17T06:38:11.392Z,41.40
2023-02-17T06:43:06.993Z,37.20
2023-02-17T06:45:35.001Z,40.50
2023-02-17T06:48:01.883Z,45.30
2023-02-17T06:50:28.748Z,41.50
2023-02-17T06:52:55.415Z,43.00
2023-02-17T06:55:22.184Z,44.20
2023-02-17T07:00:15.816Z,43.60
2023-02-17T07:02:42.599Z,43.30
2023-02-17T07:05:10.008Z,45.30
2023-02-17T07:07:36.794Z,45.00
2023-02-17T07:12:30.450Z,39.70
2023-02-17T07:17:24.552Z,40.00
2023-02-17T07:19:51.233Z,40.70
2023-02-17T07:22:17.924Z,47.40
2023-02-17T07:24:44.671Z,47.80
2023-02-17T07:29:38.108Z,45.10
2023-02-17T07:34:31.745Z,45.90
2023-02-17T07:36:58.527Z,48.20
2023-02-17T07:41:51.909Z,44.70
2023-02-17T07:46:45.288Z,42.10
2023-02-17T07:51:39.066Z,39.80
2023-02-17T07:54:06.022Z,46.40
2023-02-17T07:56:33.833Z,44.30
2023-02-17T07:59:00.648Z,44.00
2023-02-17T08:03:54.422Z,37.10
2023-02-17T08:06:23.975Z,41.60
2023-02-17T08:09:10.432Z,42.70
2023-02-17T08:11:56.299Z,43.10
2023-02-17T08:14:25.388Z,41.80
2023-02-17T08:16:52.851Z,46.00
2023-02-17T08:19:20.194Z,45.20
2023-02-17T08:21:47.566Z,48.10
2023-02-17T08:24:16.462Z,47.60
2023-02-17T08:26:43.351Z,50.00
2023-02-17T08:29:10.018Z,48.50
2023-02-17T08:34:09.607Z,45.90
2023-02-17T08:36:39.395Z,60.50
2023-02-17T08:39:10.448Z,59.40
2023-02-17T08:41:38.905Z,57.00
2023-02-17T08:44:11.816Z,56.30
2023-02-17T08:46:39.185Z,54.90
2023-02-17T08:49:07.686Z,52.30
2023-02-17T08:51:35.145Z,50.90
2023-02-17T08:54:03.898Z,55.10
2023-02-17T08:56:31.102Z,58.40
2023-02-17T08:58:57.813Z,55.00
2023-02-17T09:01:24.985Z,53.10
2023-02-17T09:03:54.655Z,51.70
2023-02-17T09:06:21.602Z,49.50
2023-02-17T09:08:49.735Z,50.50
2023-02-17T09:11:19.855Z,43.80
2023-02-17T09:13:47.002Z,49.70
2023-02-17T09:16:14.349Z,48.30
2023-02-17T09:18:41.232Z,50.60
2023-02-17T09:21:11.643Z,52.10
2023-02-17T09:23:38.499Z,49.50
2023-02-17T09:26:07.928Z,52.20
2023-02-17T09:28:35.177Z,49.80
2023-02-17T09:31:20.506Z,51.50
2023-02-17T09:33:48.844Z,54.60
2023-02-17T09:36:18.628Z,57.40
2023-02-17T09:38:45.932Z,61.00
2023-02-17T09:41:37.947Z,59.40
2023-02-17T09:44:19.006Z,64.10
2023-02-17T09:47:05.733Z,61.90
2023-02-17T09:49:40.024Z,62.40
2023-02-17T09:52:38.858Z,61.10
2023-02-17T09:55:13.838Z,61.10
2023-02-17T09:58:03.417Z,66.70
2023-02-17T10:00:35.337Z,66.90
2023-02-17T10:03:43.233Z,63.70
2023-02-17T10:06:18.488Z,70.00
2023-02-17T10:08:53.709Z,69.50
2023-02-17T10:11:34.320Z,70.10
2023-02-17T10:14:17.864Z,69.40
2023-02-17T10:16:51.844Z,71.50
2023-02-17T10:19:29.571Z,69.70
2023-02-17T10:22:05.902Z,69.40
2023-02-17T10:24:32.707Z,76.20
2023-02-17T10:27:12.054Z,72.30
2023-02-17T10:30:20.833Z,76.20
2023-02-17T10:32:56.864Z,73.80
2023-02-17T10:35:46.927Z,80.20
2023-02-17T10:38:18.190Z,65.10
2023-02-17T10:40:49.842Z,74.10
2023-02-17T10:43:24.378Z,88.60
2023-02-17T10:45:51.602Z,60.40
2023-02-17T10:48:26.299Z,83.80
2023-02-17T10:50:57.795Z,83.90
2023-02-17T10:53:29.461Z,84.90
2023-02-17T10:56:12.095Z,86.80
2023-02-17T10:59:06.689Z,86.10
2023-02-17T11:01:34.030Z,85.20
2023-02-17T11:04:07.508Z,65.50
2023-02-17T11:06:52.385Z,86.70
2023-02-17T11:09:29.508Z,83.10
2023-02-17T11:12:15.028Z,69.40
2023-02-17T11:14:47.440Z,74.20
2023-02-17T11:17:21.135Z,72.90
2023-02-17T11:19:57.210Z,74.00
2023-02-17T11:22:45.253Z,80.80
2023-02-17T11:25:22.666Z,74.30
2023-02-17T11:28:15.238Z,80.70
2023-02-17T11:30:52.046Z,74.60
2023-02-17T11:33:40.582Z,75.80
2023-02-17T11:36:13.714Z,75.20
2023-02-17T11:38:40.421Z,70.20
2023-02-17T11:41:08.501Z,65.00
2023-02-17T11:43:37.890Z,76.90
2023-02-17T11:46:41.462Z,73.40
2023-02-17T11:49:23.321Z,74.90
2023-02-17T11:52:03.619Z,73.40
2023-02-17T11:54:43.079Z,68.80
2023-02-17T11:57:34.759Z,71.00
2023-02-17T12:00:22.780Z,73.80
2023-02-17T12:03:11.188Z,64.70
2023-02-17T12:05:54.659Z,71.40
2023-02-17T12:08:33.633Z,70.00
2023-02-17T12:11:16.930Z,61.10
2023-02-17T12:14:06.188Z,64.90
2023-02-17T12:17:01.877Z,71.50
2023-02-17T12:19:36.918Z,66.90
2023-02-17T12:22:45.581Z,65.90
2023-02-17T12:25:29.148Z,62.10
2023-02-17T12:28:08.229Z,51.50
2023-02-17T12:31:12.761Z,56.80
2023-02-17T12:33:48.836Z,53.60
2023-02-17T12:36:18.582Z,53.70
2023-02-17T12:38:52.338Z,49.20
2023-02-17T12:41:41.273Z,47.20
2023-02-17T12:44:18.632Z,43.10
2023-02-17T12:46:50.892Z,41.40
2023-02-17T12:49:25.323Z,38.80
2023-02-17T12:52:11.227Z,43.30
2023-02-17T12:54:56.014Z,35.10
2023-02-17T12:57:30.205Z,35.40
2023-02-17T12:59:58.787Z,34.50
2023-02-17T13:02:26.532Z,36.40
2023-02-17T13:05:01.708Z,35.40
2023-02-17T13:07:31.757Z,36.60
2023-02-17T13:09:58.779Z,47.00
2023-02-17T13:12:25.590Z,54.70
2023-02-17T13:14:57.714Z,55.90
2023-02-17T13:17:55.666Z,53.40
2023-02-17T13:20:38.769Z,50.40
2023-02-17T13:23:11.047Z,53.90
2023-02-17T13:25:38.261Z,54.90
2023-02-17T13:28:19.791Z,53.30
2023-02-17T13:30:48.848Z,46.90
2023-02-17T13:33:21.544Z,40.60
2023-02-17T13:35:49.430Z,33.50
2023-02-17T13:38:30.164Z,35.40
2023-02-17T13:41:04.481Z,34.70
2023-02-17T13:43:40.244Z,36.10
2023-02-17T13:46:08.110Z,31.80
2023-02-17T13:48:36.311Z,26.90
2023-02-17T13:51:09.952Z,25.00
2023-02-17T13:53:40.019Z,25.20
2023-02-17T13:56:10.768Z,23.80
2023-02-17T13:58:42.283Z,25.40
2023-02-17T14:01:16.894Z,24.40
2023-02-17T14:03:50.851Z,22.30
2023-02-17T14:06:41.068Z,23.40
2023-02-17T14:09:29.585Z,22.60
2023-02-17T14:11:57.572Z,24.70
2023-02-17T14:14:29.237Z,25.30
2023-02-17T14:17:02.090Z,27.30
2023-02-17T14:19:29.660Z,27.70
2023-02-17T14:21:56.343Z,26.20
2023-02-17T14:24:40.015Z,21.80
2023-02-17T14:27:08.951Z,22.80
2023-02-17T14:29:48.065Z,23.40
2023-02-17T14:32:27.060Z,21.50
2023-02-17T14:34:53.712Z,21.60
2023-02-17T14:37:25.049Z,20.90
2023-02-17T14:39:51.832Z,21.40
2023-02-17T14:42:18.623Z,20.80
2023-02-17T14:44:45.349Z,21.70
2023-02-17T14:47:12.074Z,20.40
2023-02-17T14:49:38.766Z,22.70
2023-02-17T14:52:31.946Z,19.10
2023-02-17T14:55:00.006Z,21.60
2023-02-17T14:57:27.863Z,21.60
2023-02-17T14:59:57.767Z,21.50
2023-02-17T15:02:25.736Z,22.20
2023-02-17T15:04:52.479Z,21.20
2023-02-17T15:07:19.525Z,18.10
2023-02-17T15:09:48.626Z,25.60
2023-02-17T15:12:21.847Z,27.20
2023-02-17T15:14:48.646Z,27.50
2023-02-17T15:17:16.022Z,27.20
2023-02-17T15:19:45.068Z,28.50
2023-02-17T15:22:15.054Z,29.10
2023-02-17T15:24:42.059Z,28.60
2023-02-17T15:27:14.674Z,30.30
2023-02-17T15:29:41.783Z,30.10
2023-02-17T15:32:20.281Z,29.10
2023-02-17T15:34:47.169Z,29.20
2023-02-17T15:37:13.817Z,29.60
2023-02-17T15:39:40.490Z,29.10
2023-02-17T15:42:13.682Z,28.20
2023-02-17T15:44:44.309Z,29.90
2023-02-17T15:47:17.388Z,30.10
2023-02-17T15:49:44.580Z,29.60
2023-02-17T15:52:13.973Z,30.10
2023-02-17T15:54:42.730Z,30.40
2023-02-17T15:57:21.115Z,28.50
2023-02-17T15:59:47.980Z,29.40
2023-02-17T16:02:23.458Z,30.70
2023-02-17T16:05:08.493Z,32.60
2023-02-17T16:07:36.375Z,30.40
2023-02-17T16:10:05.599Z,34.50
2023-02-17T16:12:32.911Z,33.20
2023-02-17T16:14:59.707Z,33.80
2023-02-17T16:17:27.078Z,33.20
2023-02-17T16:19:53.815Z,31.80
2023-02-17T16:22:20.509Z,32.50
2023-02-17T16:24:47.180Z,31.90
2023-02-17T16:27:16.346Z,32.30
2023-02-17T16:29:43.596Z,33.10
2023-02-17T16:32:13.521Z,31.60
2023-02-17T16:34:40.893Z,36.40
2023-02-17T16:37:18.068Z,34.80
2023-02-17T16:39:45.799Z,33.70
2023-02-17T16:42:14.879Z,31.00
2023-02-17T16:44:42.425Z,31.50
2023-02-17T16:47:19.651Z,35.30
2023-02-17T16:49:47.706Z,39.20
2023-02-17T16:52:26.662Z,31.70
2023-02-17T16:54:54.328Z,42.40
2023-02-17T16:57:21.649Z,37.50
2023-02-17T16:59:48.427Z,36.80
2023-02-17T17:02:15.233Z,56.20
2023-02-17T17:04:42.003Z,39.40
2023-02-17T17:07:13.402Z,37.80
2023-02-17T17:09:40.881Z,31.70
2023-02-17T17:12:07.948Z,29.40
2023-02-17T17:14:34.666Z,28.30
2023-02-17T17:17:02.346Z,25.20
2023-02-17T17:19:29.108Z,26.80
2023-02-17T17:21:55.856Z,24.80
2023-02-17T17:24:22.575Z,25.80
2023-02-17T17:26:51.332Z,25.40
2023-02-17T17:29:19.577Z,24.70
2023-02-17T17:31:46.669Z,26.80
2023-02-17T17:34:13.647Z,29.20
2023-02-17T17:36:43.462Z,24.50
2023-02-17T17:39:20.784Z,25.60
2023-02-17T17:41:47.980Z,23.00
2023-02-17T17:44:15.503Z,24.60
2023-02-17T17:46:43.622Z,29.20
2023-02-17T17:49:13.464Z,28.90
2023-02-17T17:51:40.915Z,26.40
2023-02-17T17:54:08.361Z,28.70
2023-02-17T17:56:38.953Z,25.70
2023-02-17T17:59:06.944Z,24.80
2023-02-17T18:01:34.149Z,25.90
2023-02-17T18:04:01.604Z,24.40
2023-02-17T18:06:37.490Z,24.10
2023-02-17T18:09:07.085Z,19.90
2023-02-17T18:11:35.478Z,24.70
2023-02-17T18:14:06.663Z,24.40
2023-02-17T18:16:35.197Z,22.90
2023-02-17T18:19:04.423Z,24.60
2023-02-17T18:21:31.085Z,23.70
2023-02-17T18:23:57.762Z,23.60
2023-02-17T18:26:24.517Z,23.40
2023-02-17T18:28:51.235Z,24.60
2023-02-17T18:31:19.339Z,25.60
2023-02-17T18:33:46.300Z,24.40
2023-02-17T18:36:16.432Z,26.30
2023-02-17T18:38:44.356Z,30.40
2023-02-17T18:41:24.221Z,28.40
2023-02-17T18:43:51.816Z,27.30
2023-02-17T18:46:19.345Z,24.50
2023-02-17T18:48:46.586Z,26.50
2023-02-17T18:51:15.286Z,25.30
2023-02-17T18:53:42.654Z,25.90
2023-02-17T18:56:14.666Z,27.90
2023-02-17T18:58:41.714Z,27.30
2023-02-17T19:01:18.428Z,25.40
2023-02-17T19:03:45.656Z,26.20
2023-02-17T19:06:16.312Z,27.80
2023-02-17T19:08:47.830Z,28.40
2023-02-17T19:11:16.476Z,29.10
2023-02-17T19:13:43.275Z,26.70
2023-02-17T19:16:16.316Z,26.00
2023-02-17T19:18:44.495Z,26.00
2023-02-17T19:21:12.056Z,25.30
2023-02-17T19:23:39.217Z,27.10
2023-02-17T19:26:07.788Z,28.70
2023-02-17T19:28:37.664Z,27.10
2023-02-17T19:31:16.887Z,29.50
2023-02-17T19:33:45.739Z,28.20
2023-02-17T19:36:16.115Z,31.10
2023-02-17T19:38:43.141Z,31.30
2023-02-17T19:41:11.725Z,30.60
2023-02-17T19:43:39.378Z,29.80
2023-02-17T19:46:06.708Z,31.30
2023-02-17T19:48:34.512Z,30.70
2023-02-17T19:51:04.986Z,30.20
2023-02-17T19:53:33.223Z,30.90
2023-02-17T19:56:27.258Z,31.70
2023-02-17T19:58:55.374Z,34.90
2023-02-17T20:01:24.068Z,33.90
2023-02-17T20:03:52.314Z,33.90
2023-02-17T20:06:21.903Z,34.00
2023-02-17T20:09:03.125Z,33.10
2023-02-17T20:11:32.021Z,34.60
2023-02-17T20:14:00.005Z,37.70
2023-02-17T20:16:28.163Z,34.70
2023-02-17T20:18:55.796Z,38.20
2023-02-17T20:21:28.233Z,36.90
2023-02-17T20:23:55.984Z,36.90
2023-02-17T20:26:26.669Z,34.50
2023-02-17T20:28:54.543Z,37.50
2023-02-17T20:31:21.956Z,37.60
2023-02-17T20:33:48.804Z,40.10
2023-02-17T20:36:15.700Z,38.30
2023-02-17T20:38:42.470Z,37.90
2023-02-17T20:41:14.099Z,38.30
2023-02-17T20:43:40.841Z,40.10
2023-02-17T20:46:08.271Z,38.80
2023-02-17T20:48:35.323Z,40.30
2023-02-17T20:51:04.232Z,40.20
2023-02-17T20:53:31.220Z,38.90
2023-02-17T20:55:57.956Z,43.30
2023-02-17T20:58:24.690Z,38.00
2023-02-17T21:00:51.539Z,41.30
2023-02-17T21:03:18.323Z,42.60
2023-02-17T21:05:45.676Z,42.00
2023-02-17T21:08:12.416Z,39.10
2023-02-17T21:10:40.848Z,39.40
2023-02-17T21:13:07.737Z,40.30
2023-02-17T21:15:34.939Z,39.40
2023-02-17T21:18:01.817Z,38.50
2023-02-17T21:20:28.595Z,39.70
2023-02-17T21:22:55.349Z,40.40
2023-02-17T21:25:22.270Z,40.20
2023-02-17T21:27:49.212Z,39.80
2023-02-17T21:30:16.099Z,41.50
2023-02-17T21:32:43.212Z,39.70
2023-02-17T21:35:11.217Z,38.30
2023-02-17T21:37:41.388Z,38.50
2023-02-17T21:40:09.626Z,40.20
2023-02-17T21:42:58.440Z,41.00
2023-02-17T21:45:26.088Z,40.80
2023-02-17T21:47:52.779Z,42.50
2023-02-17T21:50:23.407Z,42.50
2023-02-17T21:52:50.250Z,40.00
2023-02-17T21:55:16.977Z,39.90
2023-02-17T21:57:43.704Z,43.40
2023-02-17T22:00:11.318Z,42.20
2023-02-17T22:02:42.908Z,44.80
2023-02-17T22:05:11.228Z,48.40
2023-02-17T22:07:38.634Z,46.30
2023-02-17T22:10:10.188Z,47.20
2023-02-17T22:12:39.180Z,48.60
2023-02-17T22:15:07.360Z,48.60
2023-02-17T22:17:35.821Z,46.60
2023-02-17T22:20:05.179Z,49.40
2023-02-17T22:22:33.805Z,45.60
2023-02-17T22:25:01.690Z,44.90
2023-02-17T22:27:29.148Z,39.70
2023-02-17T22:29:56.946Z,43.00
2023-02-17T22:32:24.131Z,42.40
2023-02-17T22:34:51.105Z,42.70
2023-02-17T22:37:18.451Z,42.90
2023-02-17T22:39:45.733Z,41.00
2023-02-17T22:42:14.001Z,41.10
2023-02-17T22:44:41.297Z,45.00
2023-02-17T22:47:08.713Z,43.80
2023-02-17T22:49:36.267Z,45.30
2023-02-17T22:52:04.345Z,44.50
2023-02-17T22:54:34.814Z,42.30
2023-02-17T22:57:05.812Z,41.60
2023-02-17T22:59:35.956Z,39.60
2023-02-17T23:02:03.292Z,42.70
2023-02-17T23:04:32.089Z,42.40
2023-02-17T23:06:59.741Z,41.90
2023-02-17T23:09:26.938Z,42.60
2023-02-17T23:11:54.580Z,41.30
2023-02-17T23:14:34.347Z,40.00
2023-02-17T23:17:11.280Z,38.50
2023-02-17T23:19:40.774Z,40.40
2023-02-17T23:22:12.144Z,38.70
2023-02-17T23:24:42.411Z,40.80
2023-02-17T23:27:10.587Z,39.50
2023-02-17T23:29:39.580Z,38.70
2023-02-17T23:32:10.723Z,37.90
2023-02-17T23:34:38.855Z,38.10
2023-02-17T23:37:15.812Z,38.60
2023-02-17T23:39:59.988Z,39.70
2023-02-17T23:42:49.566Z,37.80
2023-02-17T23:45:18.252Z,35.80
2023-02-17T23:47:51.852Z,39.50
2023-02-17T23:50:19.558Z,38.50
2023-02-17T23:52:47.532Z,38.90
2023-02-17T23:55:15.805Z,39.50
2023-02-17T23:57:43.057Z,36.40
